createdAt,value
2023-02-14T00:01:24.750Z,100780.50
2023-02-14T00:02:58.213Z,100784.75
2023-02-14T00:04:31.399Z,100769.91
2023-02-14T00:06:12.340Z,100771.47
2023-02-14T00:07:45.454Z,100767.75
2023-02-14T00:09:20.104Z,100777.91
2023-02-14T00:10:53.280Z,100784.25
2023-02-14T00:12:26.412Z,100784.44
2023-02-14T00:14:17.417Z,100782.72
2023-02-14T00:15:50.605Z,100787.22
2023-02-14T00:17:23.000Z,100783.91
2023-02-14T00:19:05.604Z,100781.41
2023-02-14T00:20:38.781Z,100797.16
2023-02-14T00:22:16.114Z,100786.81
2023-02-14T00:23:49.263Z,100785.97
2023-02-14T00:25:22.635Z,100786.94
2023-02-14T00:26:55.048Z,100782.75
2023-02-14T00:28:28.209Z,100781.09
2023-02-14T00:30:03.111Z,100770.72
2023-02-14T00:31:38.903Z,100790.81
2023-02-14T00:33:12.238Z,100776.88
2023-02-14T00:34:45.434Z,100775.91
2023-02-14T00:36:20.540Z,100753.59
2023-02-14T00:37:58.006Z,100775.22
2023-02-14T00:39:30.619Z,100769.91
2023-02-14T00:41:05.273Z,100775.94
2023-02-14T00:42:38.460Z,100773.28
2023-02-14T00:44:13.133Z,100769.69
2023-02-14T00:45:46.321Z,100762.47
2023-02-14T00:47:19.679Z,100761.63
2023-02-14T00:48:53.435Z,100754.72
2023-02-14T00:50:26.899Z,100765.28
2023-02-14T00:52:00.079Z,100780.06
2023-02-14T00:53:34.863Z,100765.44
2023-02-14T00:55:08.149Z,100761.22
2023-02-14T00:56:41.332Z,100762.19
2023-02-14T00:58:15.642Z,100761.28
2023-02-14T00:59:48.955Z,100759.75
2023-02-14T01:01:22.599Z,100755.41
2023-02-14T01:02:55.985Z,100759.84
2023-02-14T01:04:29.210Z,100755.47
2023-02-14T01:06:03.334Z,100752.88
2023-02-14T01:07:36.506Z,100746.03
2023-02-14T01:09:11.113Z,100749.53
2023-02-14T01:10:44.880Z,100747.56
2023-02-14T01:12:18.199Z,100751.31
2023-02-14T01:13:51.480Z,100736.22
2023-02-14T01:15:24.926Z,100747.41
2023-02-14T01:16:58.065Z,100739.59
2023-02-14T01:18:30.233Z,100726.44
2023-02-14T01:20:03.810Z,100722.75
2023-02-14T01:21:37.056Z,100721.06
2023-02-14T01:23:10.568Z,100725.94
2023-02-14T01:24:45.364Z,100717.91
2023-02-14T01:26:19.302Z,100713.47
2023-02-14T01:27:52.896Z,100712.59
2023-02-14T01:29:26.054Z,100710.06
2023-02-14T01:30:58.730Z,100703.09
2023-02-14T01:32:32.286Z,100710.81
2023-02-14T01:34:06.150Z,100711.81
2023-02-14T01:35:38.702Z,100708.50
2023-02-14T01:37:12.056Z,100711.59
2023-02-14T01:38:44.402Z,100706.53
2023-02-14T01:40:18.980Z,100699.78
2023-02-14T01:41:54.005Z,100706.53
2023-02-14T01:43:26.240Z,100696.88
2023-02-14T01:45:02.487Z,100701.66
2023-02-14T01:46:39.147Z,100703.59
2023-02-14T01:48:12.397Z,100690.84
2023-02-14T01:49:50.150Z,100689.25
2023-02-14T01:51:25.024Z,100688.56
2023-02-14T01:53:04.832Z,100678.25
2023-02-14T01:54:42.542Z,100685.91
2023-02-14T01:56:22.965Z,100673.84
2023-02-14T01:58:01.100Z,100676.50
2023-02-14T01:59:38.151Z,100658.22
2023-02-14T02:01:11.383Z,100655.53
2023-02-14T02:02:44.712Z,100653.78
2023-02-14T02:04:26.070Z,100648.63
2023-02-14T02:06:08.949Z,100644.28
2023-02-14T02:07:42.976Z,100636.56
2023-02-14T02:09:21.454Z,100643.50
2023-02-14T02:10:54.794Z,100641.88
2023-02-14T02:12:31.006Z,100642.75
2023-02-14T02:14:05.415Z,100644.56
2023-02-14T02:15:48.034Z,100640.06
2023-02-14T02:17:28.229Z,100644.44
2023-02-14T02:19:35.721Z,100641.91
2023-02-14T02:21:47.432Z,100646.38
2023-02-14T02:23:50.836Z,100635.19
2023-02-14T02:25:48.020Z,100626.59
2023-02-14T02:27:42.270Z,100623.09
2023-02-14T02:29:34.460Z,100630.09
2023-02-14T02:31:37.175Z,100641.22
2023-02-14T02:33:52.518Z,100642.13
2023-02-14T02:35:48.239Z,100648.97
2023-02-14T02:37:36.891Z,100645.47
2023-02-14T02:39:22.684Z,100645.47
2023-02-14T02:41:06.734Z,100634.69
2023-02-14T02:42:52.119Z,100627.56
2023-02-14T02:44:35.188Z,100636.66
2023-02-14T02:46:33.231Z,100630.41
2023-02-14T02:48:11.209Z,100635.88
2023-02-14T02:50:10.246Z,100630.59
2023-02-14T02:52:11.938Z,100617.88
2023-02-14T02:53:50.433Z,100626.50
2023-02-14T02:55:30.536Z,100621.38
2023-02-14T02:57:08.826Z,100627.47
2023-02-14T02:58:45.735Z,100620.59
2023-02-14T03:00:20.044Z,100606.59
2023-02-14T03:01:59.781Z,100607.44
2023-02-14T03:03:52.685Z,100604.84
2023-02-14T03:05:27.087Z,100605.66
2023-02-14T03:07:22.332Z,100615.13
2023-02-14T03:08:55.570Z,100595.13
2023-02-14T03:10:32.740Z,100602.22
2023-02-14T03:12:18.262Z,100589.81
2023-02-14T03:14:15.765Z,100587.03
2023-02-14T03:15:58.898Z,100598.44
2023-02-14T03:17:42.516Z,100604.53
2023-02-14T03:19:37.055Z,100581.84
2023-02-14T03:21:22.482Z,100585.59
2023-02-14T03:23:05.417Z,100602.06
2023-02-14T03:24:48.344Z,100597.81
2023-02-14T03:26:28.835Z,100594.28
2023-02-14T03:28:13.064Z,100600.25
2023-02-14T03:29:55.102Z,100589.72
2023-02-14T03:31:34.006Z,100595.66
2023-02-14T03:33:16.084Z,100595.69
2023-02-14T03:34:57.243Z,100583.53
2023-02-14T03:36:38.237Z,100589.78
2023-02-14T03:38:21.118Z,100585.59
2023-02-14T03:40:00.796Z,100589.09
2023-02-14T03:41:40.841Z,100576.84
2023-02-14T03:43:18.597Z,100583.72
2023-02-14T04:00:59.401Z,100550.03
2023-02-14T04:02:37.745Z,100550.81
2023-02-14T04:04:14.282Z,100546.59
2023-02-14T04:05:52.553Z,100543.78
2023-02-14T04:07:26.407Z,100533.38
2023-02-14T04:08:59.697Z,100534.31
2023-02-14T04:10:33.508Z,100536.09
2023-02-14T04:12:07.072Z,100509.06
2023-02-14T04:13:40.851Z,100533.50
2023-02-14T04:15:13.567Z,100522.34
2023-02-14T04:17:05.859Z,100529.53
2023-02-14T04:18:59.240Z,100529.69
2023-02-14T04:20:32.497Z,100527.28
2023-02-14T04:22:05.697Z,100523.97
2023-02-14T04:23:38.875Z,100529.16
2023-02-14T04:25:12.038Z,100518.84
2023-02-14T04:26:54.331Z,100523.88
2023-02-14T04:28:27.566Z,100520.09
2023-02-14T04:30:00.860Z,100523.47
2023-02-14T04:31:34.645Z,100520.75
2023-02-14T04:33:10.771Z,100512.56
2023-02-14T04:34:44.080Z,100514.34
2023-02-14T04:36:16.275Z,100519.72
2023-02-14T04:37:49.426Z,100518.91
2023-02-14T04:39:22.611Z,100523.25
2023-02-14T04:40:55.785Z,100512.22
2023-02-14T04:42:29.203Z,100515.78
2023-02-14T04:44:06.550Z,100509.03
2023-02-14T04:45:40.016Z,100515.25
2023-02-14T04:47:13.174Z,100508.38
2023-02-14T04:48:47.745Z,100506.72
2023-02-14T04:50:23.440Z,100503.19
2023-02-14T04:51:56.765Z,100495.22
2023-02-14T04:53:29.975Z,100508.38
2023-02-14T04:55:04.438Z,100501.63
2023-02-14T04:56:37.684Z,100498.19
2023-02-14T04:58:10.909Z,100500.88
2023-02-14T04:59:44.099Z,100506.16
2023-02-14T05:01:17.371Z,100503.63
2023-02-14T05:02:50.788Z,100518.44
2023-02-14T05:04:26.039Z,100521.09
2023-02-14T05:05:59.157Z,100534.16
2023-02-14T05:07:32.402Z,100523.00
2023-02-14T05:12:33.662Z,100512.41
2023-02-14T05:14:06.809Z,100507.31
2023-02-14T05:15:39.965Z,100511.88
2023-02-14T05:17:13.178Z,100513.72
2023-02-14T05:18:46.628Z,100512.88
2023-02-14T05:20:21.268Z,100511.59
2023-02-14T05:21:54.353Z,100513.03
2023-02-14T05:23:27.685Z,100511.84
2023-02-14T05:25:01.266Z,100516.84
2023-02-14T05:26:34.532Z,100510.00
2023-02-14T05:28:08.229Z,100526.09
2023-02-14T05:29:41.479Z,100531.63
2023-02-14T05:31:14.988Z,100537.84
2023-02-14T05:32:48.529Z,100536.16
2023-02-14T05:34:21.927Z,100531.97
2023-02-14T05:35:56.559Z,100532.88
2023-02-14T05:37:30.156Z,100524.19
2023-02-14T05:39:03.321Z,100532.06
2023-02-14T05:40:36.527Z,100528.53
2023-02-14T05:42:12.616Z,100536.41
2023-02-14T05:43:46.117Z,100525.19
2023-02-14T05:45:19.482Z,100535.69
2023-02-14T05:46:52.662Z,100553.94
2023-02-14T05:48:26.252Z,100554.03
2023-02-14T05:49:59.864Z,100546.03
2023-02-14T05:51:34.403Z,100551.31
2023-02-14T05:53:07.563Z,100540.19
2023-02-14T05:54:40.780Z,100545.38
2023-02-14T05:56:14.961Z,100550.69
2023-02-14T05:57:48.665Z,100526.34
2023-02-14T05:59:21.961Z,100555.44
2023-02-14T06:00:55.167Z,100541.44
2023-02-14T06:02:28.797Z,100542.09
2023-02-14T06:04:02.207Z,100550.75
2023-02-14T06:05:35.562Z,100559.53
2023-02-14T06:07:10.185Z,100561.41
2023-02-14T06:08:43.554Z,100562.34
2023-02-14T06:10:16.970Z,100556.34
2023-02-14T06:11:50.243Z,100550.16
2023-02-14T06:13:25.019Z,100561.59
2023-02-14T06:14:58.640Z,100542.72
2023-02-14T06:16:31.816Z,100546.63
2023-02-14T06:18:06.172Z,100547.81
2023-02-14T06:19:39.317Z,100549.91
2023-02-14T06:21:12.761Z,100551.81
2023-02-14T06:22:47.268Z,100545.91
2023-02-14T06:24:20.438Z,100543.75
2023-02-14T06:25:53.596Z,100543.19
2023-02-14T06:27:27.077Z,100548.78
2023-02-14T06:29:00.788Z,100543.00
2023-02-14T06:30:34.376Z,100542.28
2023-02-14T06:32:07.740Z,100534.53
2023-02-14T06:33:41.266Z,100541.22
2023-02-14T06:35:14.699Z,100530.25
2023-02-14T06:36:47.919Z,100526.38
2023-02-14T06:38:22.462Z,100535.63
2023-02-14T06:39:56.103Z,100530.69
2023-02-14T06:41:29.228Z,100537.72
2023-02-14T06:43:02.418Z,100550.97
2023-02-14T06:44:35.618Z,100551.19
2023-02-14T06:46:09.149Z,100554.94
2023-02-14T06:47:42.351Z,100552.50
2023-02-14T06:49:15.614Z,100563.78
2023-02-14T06:50:49.097Z,100554.25
2023-02-14T06:52:22.584Z,100567.44
2023-02-14T06:53:57.143Z,100556.16
2023-02-14T06:55:30.287Z,100563.31
2023-02-14T06:57:03.507Z,100570.44
2023-02-14T06:58:36.930Z,100556.72
2023-02-14T07:00:11.363Z,100567.38
2023-02-14T07:01:44.691Z,100567.53
2023-02-14T07:03:17.841Z,100557.13
2023-02-14T07:04:51.281Z,100561.59
2023-02-14T07:06:24.571Z,100558.16
2023-02-14T07:07:57.712Z,100553.81
2023-02-14T07:09:32.257Z,100557.44
2023-02-14T07:11:05.912Z,100568.81
2023-02-14T07:12:39.704Z,100555.72
2023-02-14T07:14:13.344Z,100554.00
2023-02-14T07:15:46.544Z,100564.56
2023-02-14T07:17:20.575Z,100558.50
2023-02-14T07:18:53.719Z,100554.28
2023-02-14T07:20:27.218Z,100557.84
2023-02-14T07:22:00.856Z,100560.50
2023-02-14T07:23:37.079Z,100561.41
2023-02-14T07:25:12.801Z,100559.66
2023-02-14T07:26:46.025Z,100556.19
2023-02-14T07:28:19.461Z,100563.19
2023-02-14T07:29:53.457Z,100559.69
2023-02-14T07:31:26.778Z,100566.66
2023-02-14T07:32:59.999Z,100564.03
2023-02-14T07:34:33.358Z,100563.16
2023-02-14T07:36:07.100Z,100564.06
2023-02-14T07:37:40.592Z,100566.69
2023-02-14T07:39:13.743Z,100575.44
2023-02-14T07:40:48.281Z,100569.31
2023-02-14T07:42:21.783Z,100570.19
2023-02-14T07:43:54.970Z,100571.94
2023-02-14T07:45:28.561Z,100568.41
2023-02-14T07:47:01.759Z,100571.06
2023-02-14T07:48:35.372Z,100547.44
2023-02-14T07:50:08.596Z,100556.19
2023-02-14T07:51:41.868Z,100559.78
2023-02-14T07:53:15.050Z,100562.38
2023-02-14T07:54:48.657Z,100572.00
2023-02-14T07:56:23.305Z,100573.78
2023-02-14T07:57:56.633Z,100575.53
2023-02-14T07:59:29.928Z,100572.00
2023-02-14T08:01:03.268Z,100573.78
2023-02-14T08:02:36.961Z,100572.91
2023-02-14T08:04:10.700Z,100577.28
2023-02-14T08:05:44.301Z,100556.25
2023-02-14T08:07:17.661Z,100565.03
2023-02-14T08:08:50.762Z,100556.31
2023-02-14T08:10:24.249Z,100561.56
2023-02-14T08:12:17.190Z,100563.31
2023-02-14T08:13:50.497Z,100575.53
2023-02-14T08:15:41.238Z,100560.69
2023-02-14T08:17:14.774Z,100568.53
2023-02-14T08:18:47.964Z,100569.41
2023-02-14T08:20:21.809Z,100570.28
2023-02-14T08:21:54.921Z,100571.16
2023-02-14T08:23:28.601Z,100566.75
2023-02-14T08:25:01.727Z,100563.22
2023-02-14T08:26:35.216Z,100561.50
2023-02-14T08:28:09.942Z,100570.28
2023-02-14T08:29:43.320Z,100565.91
2023-02-14T08:31:34.286Z,100572.88
2023-02-14T08:33:08.873Z,100579.03
2023-02-14T08:34:42.530Z,100559.78
2023-02-14T08:36:17.847Z,100561.53
2023-02-14T08:37:51.104Z,100569.41
2023-02-14T08:39:24.840Z,100566.81
2023-02-14T08:41:03.820Z,100565.03
2023-02-14T08:42:38.654Z,100558.06
2023-02-14T08:44:13.210Z,100558.94
2023-02-14T08:45:46.602Z,100554.59
2023-02-14T08:47:19.746Z,100551.94
2023-02-14T08:48:54.394Z,100555.47
2023-02-14T08:50:27.516Z,100561.59
2023-02-14T08:52:05.085Z,100554.59
2023-02-14T08:53:38.216Z,100565.09
2023-02-14T08:55:12.668Z,100560.75
2023-02-14T08:56:45.837Z,100562.50
2023-02-14T08:58:19.338Z,100568.63
2023-02-14T08:59:53.919Z,100553.75
2023-02-14T09:01:29.234Z,100565.09
2023-02-14T09:03:02.979Z,100566.88
2023-02-14T09:04:36.623Z,100552.88
2023-02-14T09:06:12.069Z,100554.63
2023-02-14T09:07:45.401Z,100554.63
2023-02-14T09:09:19.466Z,100545.84
2023-02-14T09:10:52.891Z,100549.38
2023-02-14T09:12:26.256Z,100547.63
2023-02-14T09:13:59.878Z,100558.13
2023-02-14T09:15:34.741Z,100554.63
2023-02-14T09:17:08.498Z,100552.00
2023-02-14T09:18:41.716Z,100547.59
2023-02-14T09:20:16.804Z,100544.13
2023-02-14T09:21:49.984Z,100537.09
2023-02-14T09:23:23.409Z,100535.34
2023-02-14T09:24:56.538Z,100536.19
2023-02-14T09:26:36.934Z,100529.19
2023-02-14T09:28:10.216Z,100533.56
2023-02-14T09:29:43.565Z,100530.03
2023-02-14T09:31:19.731Z,100520.34
2023-02-14T09:32:54.041Z,100522.97
2023-02-14T09:34:28.142Z,100524.75
2023-02-14T09:36:18.877Z,100533.50
2023-02-14T09:38:09.537Z,100529.97
2023-02-14T09:39:43.240Z,100529.97
2023-02-14T09:41:43.374Z,100519.50
2023-02-14T09:43:24.677Z,100513.34
2023-02-14T09:45:02.542Z,100526.50
2023-02-14T09:46:44.832Z,100525.63
2023-02-14T09:48:28.246Z,100514.25
2023-02-14T09:50:02.895Z,100529.13
2023-02-14T09:51:37.383Z,100528.28
2023-02-14T09:53:24.098Z,100522.19
2023-02-14T09:55:01.277Z,100523.03
2023-02-14T09:56:51.269Z,100522.13
2023-02-14T09:58:32.513Z,100514.28
2023-02-14T10:00:19.063Z,100525.66
2023-02-14T10:01:58.337Z,100516.88
2023-02-14T10:03:48.215Z,100510.75
2023-02-14T10:05:25.509Z,100510.72
2023-02-14T10:07:09.413Z,100509.03
2023-02-14T10:08:57.071Z,100506.41
2023-02-14T10:10:37.133Z,100502.88
2023-02-14T10:12:18.981Z,100509.03
2023-02-14T10:13:56.109Z,100506.41
2023-02-14T10:15:33.428Z,100503.81
2023-02-14T10:17:11.143Z,100497.66
2023-02-14T10:18:48.446Z,100495.91
2023-02-14T10:20:25.617Z,100504.69
2023-02-14T10:22:02.313Z,100507.28
2023-02-14T10:23:39.502Z,100495.00
2023-02-14T10:25:22.001Z,100495.00
2023-02-14T10:26:59.425Z,100502.88
2023-02-14T10:28:34.713Z,100504.63
2023-02-14T10:30:13.626Z,100493.25
2023-02-14T10:31:55.977Z,100508.13
2023-02-14T10:33:36.210Z,100501.13
2023-02-14T10:35:22.977Z,100500.25
2023-02-14T10:37:21.912Z,100502.03
2023-02-14T10:39:02.863Z,100498.50
2023-02-14T10:41:04.474Z,100507.25
2023-02-14T10:42:52.638Z,100507.25
2023-02-14T10:44:36.032Z,100493.25
2023-02-14T10:46:18.234Z,100495.88
2023-02-14T10:47:59.934Z,100498.50
2023-02-14T10:49:45.794Z,100502.00
2023-02-14T10:51:22.866Z,100491.47
2023-02-14T10:53:06.204Z,100489.72
2023-02-14T10:54:41.234Z,100495.84
2023-02-14T10:56:21.279Z,100493.22
2023-02-14T10:57:58.087Z,100488.84
2023-02-14T10:59:40.982Z,100491.44
2023-02-14T11:01:18.191Z,100476.53
2023-02-14T11:02:54.769Z,100485.31
2023-02-14T11:04:29.199Z,100480.91
2023-02-14T11:06:04.062Z,100491.44
2023-02-14T11:07:37.240Z,100484.41
2023-02-14T11:09:12.208Z,100464.22
2023-02-14T11:10:45.501Z,100483.53
2023-02-14T11:12:37.740Z,100475.63
2023-02-14T11:14:22.725Z,100472.09
2023-02-14T11:16:01.165Z,100459.84
2023-02-14T11:17:36.031Z,100455.50
2023-02-14T11:19:19.957Z,100467.72
2023-02-14T11:21:06.331Z,100459.84
2023-02-14T11:22:39.402Z,100469.47
2023-02-14T11:24:20.263Z,100452.81
2023-02-14T11:25:56.760Z,100454.53
2023-02-14T11:27:29.999Z,100442.25
2023-02-14T11:29:11.613Z,100444.00
2023-02-14T11:30:47.687Z,100434.38
2023-02-14T11:32:23.964Z,100439.56
2023-02-14T11:33:58.081Z,100437.75
2023-02-14T11:35:34.924Z,100428.88
2023-02-14T11:37:26.383Z,100438.47
2023-02-14T11:39:06.474Z,100431.44
2023-02-14T11:40:41.482Z,100427.81
2023-02-14T11:42:15.160Z,100424.25
2023-02-14T11:43:49.320Z,100421.50
2023-02-14T11:45:34.685Z,100418.84
2023-02-14T11:47:20.057Z,100422.38
2023-02-14T11:48:59.044Z,100407.50
2023-02-14T11:50:32.207Z,100417.09
2023-02-14T11:52:11.870Z,100410.97
2023-02-14T11:53:49.975Z,100412.69
2023-02-14T11:55:29.061Z,100418.84
2023-02-14T11:57:08.724Z,100418.91
2023-02-14T11:58:50.163Z,100412.78
2023-02-14T12:00:26.895Z,100418.03
2023-02-14T12:02:04.370Z,100410.25
2023-02-14T12:03:40.874Z,100396.28
2023-02-14T12:05:21.579Z,100404.22
2023-02-14T12:06:55.530Z,100401.59
2023-02-14T12:08:31.781Z,100403.41
2023-02-14T12:10:24.329Z,100403.41
2023-02-14T12:11:59.191Z,100398.19
2023-02-14T12:13:33.988Z,100398.16
2023-02-14T12:15:34.482Z,100399.97
2023-02-14T12:17:20.296Z,100406.09
2023-02-14T12:19:00.959Z,100405.28
2023-02-14T12:20:43.056Z,100403.53
2023-02-14T12:22:20.791Z,100393.91
2023-02-14T12:24:04.546Z,100370.25
2023-02-14T12:25:45.328Z,100399.16
2023-02-14T12:27:23.469Z,100405.28
2023-02-14T12:29:03.976Z,100393.81
2023-02-14T12:30:40.213Z,100398.25
2023-02-14T12:32:20.953Z,100403.53
2023-02-14T12:33:54.857Z,100395.63
2023-02-14T12:35:44.995Z,100401.78
2023-02-14T12:37:26.128Z,100405.25
2023-02-14T12:39:09.763Z,100404.44
2023-02-14T12:40:53.208Z,100393.03
2023-02-14T12:42:46.805Z,100392.22
2023-02-14T12:44:31.187Z,100387.84
2023-02-14T12:46:45.836Z,100388.72
2023-02-14T12:48:31.411Z,100386.03
2023-02-14T12:50:18.630Z,100380.84
2023-02-14T12:52:01.127Z,100393.94
2023-02-14T12:53:55.205Z,100379.13
2023-02-14T12:55:42.641Z,100380.84
2023-02-14T12:57:29.074Z,100394.84
2023-02-14T12:59:19.817Z,100391.31
2023-02-14T13:01:05.967Z,100400.91
2023-02-14T13:03:15.663Z,100394.81
2023-02-14T13:04:58.486Z,100400.09
2023-02-14T13:06:35.544Z,100397.47
2023-02-14T13:08:22.764Z,100398.34
2023-02-14T13:10:03.189Z,100396.56
2023-02-14T13:11:43.985Z,100392.22
2023-02-14T13:13:29.864Z,100386.09
2023-02-14T13:15:19.865Z,100384.31
2023-02-14T13:16:58.430Z,100382.59
2023-02-14T13:18:45.447Z,100381.75
2023-02-14T13:20:38.281Z,100384.41
2023-02-14T13:22:19.128Z,100379.13
2023-02-14T13:23:59.154Z,100379.97
2023-02-14T13:25:37.210Z,100379.94
2023-02-14T13:27:15.698Z,100379.03
2023-02-14T13:28:54.004Z,100387.78
2023-02-14T13:30:32.997Z,100386.00
2023-02-14T13:32:07.007Z,100380.69
2023-02-14T13:33:45.655Z,100374.59
2023-02-14T13:35:30.286Z,100377.22
2023-02-14T13:37:07.857Z,100373.78
2023-02-14T13:38:45.757Z,100365.88
2023-02-14T13:40:21.679Z,100368.47
2023-02-14T13:41:54.893Z,100371.94
2023-02-14T13:43:52.714Z,100350.88
2023-02-14T13:46:05.682Z,100367.59
2023-02-14T13:47:38.954Z,100355.28
2023-02-14T13:49:30.477Z,100359.69
2023-02-14T13:51:05.932Z,100358.81
2023-02-14T13:52:47.811Z,100364.09
2023-02-14T13:54:35.106Z,100354.41
2023-02-14T13:56:33.975Z,100360.53
2023-02-14T13:58:16.160Z,100345.63
2023-02-14T14:00:44.158Z,100357.91
2023-02-14T14:02:33.842Z,100356.16
2023-02-14T14:04:30.487Z,100335.19
2023-02-14T14:06:07.195Z,100332.56
2023-02-14T14:07:40.489Z,100329.88
2023-02-14T14:09:14.146Z,100329.03
2023-02-14T14:10:49.697Z,100324.69
2023-02-14T14:12:45.504Z,100336.97
2023-02-14T14:14:36.527Z,100335.25
2023-02-14T14:16:29.165Z,100336.16
2023-02-14T14:18:40.253Z,100331.78
2023-02-14T14:20:40.887Z,100323.00
2023-02-14T14:22:16.520Z,100316.00
2023-02-14T14:24:07.262Z,100319.53
2023-02-14T14:25:42.076Z,100321.28
2023-02-14T14:27:18.800Z,100323.06
2023-02-14T14:28:52.283Z,100316.94
2023-02-14T14:30:29.442Z,100317.81
2023-02-14T14:32:14.163Z,100319.53
2023-02-14T14:33:47.319Z,100325.63
2023-02-14T14:35:23.118Z,100323.06
2023-02-14T14:37:04.235Z,100316.09
2023-02-14T14:38:49.430Z,100324.81
2023-02-14T14:40:26.652Z,100316.91
2023-02-14T14:42:12.620Z,100324.81
2023-02-14T14:43:45.876Z,100316.91
2023-02-14T14:45:24.279Z,100326.53
2023-02-14T14:47:00.641Z,100323.00
2023-02-14T14:48:40.525Z,100326.53
2023-02-14T14:50:18.217Z,100323.06
2023-02-14T14:51:51.584Z,100326.56
2023-02-14T14:53:29.386Z,100317.81
2023-02-14T14:55:04.613Z,100326.56
2023-02-14T14:56:45.017Z,100315.19
2023-02-14T14:58:33.595Z,100324.88
2023-02-14T15:00:11.060Z,100324.91
2023-02-14T15:01:45.523Z,100325.75
2023-02-14T15:03:24.023Z,100321.38
2023-02-14T15:04:58.709Z,100323.13
2023-02-14T15:06:32.261Z,100327.53
2023-02-14T15:08:21.715Z,100323.19
2023-02-14T15:09:54.900Z,100323.19
2023-02-14T15:11:47.719Z,100321.41
2023-02-14T15:13:45.669Z,100324.03
2023-02-14T15:15:20.184Z,100319.69
2023-02-14T15:16:57.912Z,100319.69
2023-02-14T15:18:31.489Z,100314.44
2023-02-14T15:20:10.507Z,100324.09
2023-02-14T15:21:44.808Z,100319.75
2023-02-14T15:23:20.586Z,100323.28
2023-02-14T15:24:54.569Z,100327.69
2023-02-14T15:26:30.355Z,100319.84
2023-02-14T15:28:04.211Z,100328.63
2023-02-14T15:29:37.719Z,100326.88
2023-02-14T15:31:11.578Z,100328.63
2023-02-14T15:32:45.448Z,100325.16
2023-02-14T15:34:22.067Z,100328.69
2023-02-14T15:35:58.130Z,100338.34
2023-02-14T15:37:32.427Z,100326.09
2023-02-14T15:39:07.884Z,100339.25
2023-02-14T15:40:42.145Z,100339.25
2023-02-14T15:42:25.968Z,100334.88
2023-02-14T15:43:59.631Z,100335.78
2023-02-14T15:45:32.969Z,100327.00
2023-02-14T15:47:07.734Z,100335.78
2023-02-14T15:48:42.038Z,100339.28
2023-02-14T15:50:17.977Z,100341.94
2023-02-14T15:51:53.225Z,100336.69
2023-02-14T15:53:36.371Z,100342.81
2023-02-14T15:55:10.945Z,100327.97
2023-02-14T15:56:46.888Z,100343.69
2023-02-14T15:58:22.565Z,100342.84
2023-02-14T15:59:55.945Z,100345.47
2023-02-14T16:01:30.244Z,100344.56
2023-02-14T16:03:07.372Z,100346.31
2023-02-14T16:04:40.610Z,100346.31
2023-02-14T16:06:30.493Z,100354.19
2023-02-14T16:08:07.898Z,100355.06
2023-02-14T16:09:41.054Z,100355.91
2023-02-14T16:11:15.910Z,100361.19
2023-02-14T16:12:57.841Z,100358.53
2023-02-14T16:14:35.263Z,100352.44
2023-02-14T16:16:10.055Z,100354.16
2023-02-14T16:17:44.214Z,100357.66
2023-02-14T16:19:38.430Z,100363.75
2023-02-14T16:21:18.016Z,100362.88
2023-02-14T16:22:51.728Z,100355.03
2023-02-14T16:24:26.321Z,100366.38
2023-02-14T16:26:00.270Z,100358.50
2023-02-14T16:27:33.454Z,100374.22
2023-02-14T16:29:08.519Z,100372.47
2023-02-14T16:30:43.379Z,100365.47
2023-02-14T16:32:21.642Z,100365.47
2023-02-14T16:33:55.447Z,100370.72
2023-02-14T16:35:29.604Z,100369.84
2023-02-14T16:37:08.439Z,100381.16
2023-02-14T16:38:44.947Z,100377.69
2023-02-14T16:40:23.488Z,100380.25
2023-02-14T16:41:57.979Z,100390.72
2023-02-14T16:43:31.125Z,100385.47
2023-02-14T16:45:06.337Z,100381.94
2023-02-14T16:46:39.735Z,100385.41
2023-02-14T16:48:15.826Z,100395.00
2023-02-14T16:49:50.694Z,100397.56
2023-02-14T16:51:25.856Z,100408.03
2023-02-14T16:52:59.119Z,100415.00
2023-02-14T16:54:32.956Z,100409.75
2023-02-14T16:56:08.630Z,100416.72
2023-02-14T16:57:47.575Z,100407.03
2023-02-14T16:59:20.820Z,100415.78
2023-02-14T17:00:54.422Z,100421.84
2023-02-14T17:02:29.375Z,100417.47
2023-02-14T17:04:12.577Z,100415.69
2023-02-14T17:05:46.097Z,100406.94
2023-02-14T17:07:19.649Z,100411.31
2023-02-14T17:08:54.367Z,100410.41
2023-02-14T17:10:28.874Z,100416.50
2023-02-14T17:12:07.128Z,100412.97
2023-02-14T17:13:44.442Z,100417.28
2023-02-14T17:15:21.420Z,100412.00
2023-02-14T17:16:59.514Z,100417.19
2023-02-14T17:18:34.163Z,100420.63
2023-02-14T17:20:09.308Z,100408.38
2023-02-14T17:21:42.626Z,100412.72
2023-02-14T17:23:16.494Z,100419.63
2023-02-14T17:24:49.645Z,100423.94
2023-02-14T17:26:23.473Z,100423.88
2023-02-14T17:27:58.064Z,100414.22
2023-02-14T17:29:31.228Z,100420.25
2023-02-14T17:31:05.556Z,100416.75
2023-02-14T17:32:39.168Z,100418.47
2023-02-14T17:34:12.245Z,100428.00
2023-02-14T17:35:45.515Z,100416.66
2023-02-14T17:37:19.487Z,100415.72
2023-02-14T17:38:55.017Z,100423.50
2023-02-14T17:40:28.836Z,100411.25
2023-02-14T17:42:02.142Z,100420.00
2023-02-14T17:43:36.720Z,100413.91
2023-02-14T17:45:12.021Z,100418.25
2023-02-14T17:46:46.005Z,100420.81
2023-02-14T17:48:19.434Z,100417.31
2023-02-14T17:49:52.579Z,100419.00
2023-02-14T17:51:26.397Z,100422.53
2023-02-14T17:52:59.680Z,100427.75
2023-02-14T17:54:37.433Z,100426.91
2023-02-14T17:56:12.952Z,100420.78
2023-02-14T17:57:46.131Z,100426.88
2023-02-14T17:59:21.260Z,100423.34
2023-02-14T18:00:54.528Z,100428.56
2023-02-14T18:02:28.678Z,100432.00
2023-02-14T18:04:01.987Z,100419.78
2023-02-14T18:05:37.423Z,100428.47
2023-02-14T18:07:10.662Z,100427.53
2023-02-14T18:08:49.308Z,100420.34
2023-02-14T18:10:22.468Z,100430.78
2023-02-14T18:11:55.635Z,100430.78
2023-02-14T18:13:29.148Z,100430.78
2023-02-14T18:15:05.702Z,100439.47
2023-02-14T18:16:41.405Z,100440.34
2023-02-14T18:18:14.758Z,100431.59
2023-02-14T18:19:48.108Z,100438.50
2023-02-14T18:21:21.931Z,100443.72
2023-02-14T18:22:55.440Z,100436.75
2023-02-14T18:24:28.704Z,100438.50
2023-02-14T18:26:04.437Z,100442.84
2023-02-14T18:27:39.425Z,100447.16
2023-02-14T18:29:12.930Z,100443.63
2023-02-14T18:30:47.760Z,100447.09
2023-02-14T18:32:20.973Z,100446.31
2023-02-14T18:33:55.044Z,100454.22
2023-02-14T18:35:28.270Z,100449.00
2023-02-14T18:37:02.805Z,100453.31
2023-02-14T18:38:36.230Z,100459.44
2023-02-14T18:40:11.422Z,100455.06
2023-02-14T18:41:44.868Z,100455.97
2023-02-14T18:43:18.024Z,100453.34
2023-02-14T18:44:51.223Z,100457.69
2023-02-14T18:46:27.872Z,100449.06
2023-02-14T18:48:01.054Z,100459.53
2023-02-14T18:49:34.471Z,100456.09
2023-02-14T18:51:08.963Z,100462.19
2023-02-14T18:52:42.295Z,100463.06
2023-02-14T18:54:15.437Z,100462.19
2023-02-14T18:55:48.649Z,100458.69